createdAt,value
2023-04-01T00:02:07.824Z,9.68
2023-04-01T00:05:11.265Z,9.66
2023-04-01T00:08:13.264Z,9.66
2023-04-01T00:11:15.907Z,9.68
2023-04-01T00:14:17.677Z,9.69
2023-04-01T00:17:19.452Z,9.73
2023-04-01T00:20:21.964Z,9.64
2023-04-01T00:23:23.702Z,9.69
2023-04-01T00:26:26.275Z,9.63
2023-04-01T00:29:30.269Z,9.71
2023-04-01T00:32:32.416Z,9.72
2023-04-01T00:35:34.528Z,9.68
2023-04-01T00:38:37.195Z,9.66
2023-04-01T00:41:39.220Z,9.69
2023-04-01T00:44:41.616Z,9.72
2023-04-01T00:47:43.537Z,9.64
2023-04-01T00:50:52.162Z,9.66
2023-04-01T00:53:55.428Z,9.65
2023-04-01T00:57:07.372Z,9.69
2023-04-01T01:00:12.105Z,9.73
2023-04-01T01:03:14.064Z,9.73
2023-04-01T01:06:32.803Z,9.70
2023-04-01T01:09:46.831Z,9.67
2023-04-01T01:12:48.713Z,9.57
2023-04-01T01:16:04.964Z,9.56
2023-04-01T01:19:32.709Z,9.49
2023-04-01T01:22:53.799Z,9.69
2023-04-01T01:26:34.152Z,9.70
2023-04-01T01:29:38.983Z,9.71
2023-04-01T01:33:02.424Z,9.85
2023-04-01T01:36:08.007Z,10.05
2023-04-01T01:39:10.591Z,10.16
2023-04-01T01:42:14.812Z,10.28
2023-04-01T01:45:19.931Z,10.29
2023-04-01T01:48:22.235Z,10.30
2023-04-01T01:51:24.930Z,10.38
2023-04-01T01:54:27.072Z,10.37
2023-04-01T01:57:35.012Z,10.40
2023-04-01T02:00:37.295Z,10.40
2023-04-01T02:03:40.876Z,10.28
2023-04-01T02:06:47.762Z,10.06
2023-04-01T02:09:49.821Z,10.04
2023-04-01T02:12:53.038Z,10.02
2023-04-01T02:16:00.197Z,9.97
2023-04-01T02:19:02.663Z,10.00
2023-04-01T02:22:05.540Z,10.02
2023-04-01T02:25:10.638Z,10.06
2023-04-01T02:28:13.952Z,10.07
2023-04-01T02:31:15.937Z,10.12
2023-04-01T02:34:17.972Z,10.12
2023-04-01T02:37:19.847Z,10.13
2023-04-01T02:40:22.011Z,10.18
2023-04-01T02:43:24.328Z,10.12
2023-04-01T02:46:26.601Z,10.13
2023-04-01T02:49:28.537Z,10.04
2023-04-01T02:52:31.067Z,9.93
2023-04-01T02:55:34.661Z,10.00
2023-04-01T02:58:37.151Z,9.93
2023-04-01T03:01:39.508Z,9.98
2023-04-01T03:04:41.642Z,9.93
2023-04-01T03:07:43.407Z,9.89
2023-04-01T03:10:45.285Z,9.86
2023-04-01T03:13:47.004Z,9.86
2023-04-01T03:16:48.799Z,9.86
2023-04-01T03:19:50.708Z,9.76
2023-04-01T03:22:52.573Z,9.74
2023-04-01T03:25:54.328Z,9.70
2023-04-01T03:28:56.617Z,9.64
2023-04-01T03:31:59.868Z,9.54
2023-04-01T03:35:01.736Z,9.54
2023-04-01T03:38:03.780Z,9.53
2023-04-01T03:41:05.610Z,9.59
2023-04-01T03:44:07.592Z,9.59
2023-04-01T03:47:10.142Z,9.64
2023-04-01T03:50:12.280Z,9.55
2023-04-01T03:53:14.376Z,9.51
2023-04-01T03:56:16.134Z,9.58
2023-04-01T03:59:18.050Z,9.57
2023-04-01T04:02:20.620Z,9.68
2023-04-01T04:05:22.513Z,9.78
2023-04-01T04:08:24.326Z,9.76
2023-04-01T04:11:26.757Z,9.81
2023-04-01T04:14:28.585Z,9.76
2023-04-01T04:17:30.560Z,9.76
2023-04-01T04:20:32.407Z,9.71
2023-04-01T04:23:34.715Z,9.71
2023-04-01T04:26:36.960Z,9.66
2023-04-01T04:29:38.817Z,9.63
2023-04-01T04:32:41.744Z,9.64
2023-04-01T04:35:43.617Z,9.61
2023-04-01T04:38:45.898Z,9.58
2023-04-01T04:41:47.837Z,9.62
2023-04-01T04:44:49.693Z,9.58
2023-04-01T04:47:51.837Z,9.59
2023-04-01T04:50:53.653Z,9.64
2023-04-01T04:53:55.550Z,9.64
2023-04-01T04:56:57.542Z,9.68
2023-04-01T04:59:59.626Z,9.71
2023-04-01T05:03:01.778Z,9.73
2023-04-01T05:06:04.050Z,9.81
2023-04-01T05:09:05.930Z,9.81
2023-04-01T05:12:08.012Z,9.91
2023-04-01T05:15:10.291Z,10.01
2023-04-01T05:18:12.132Z,10.13
2023-04-01T05:21:15.944Z,10.30
2023-04-01T05:24:17.705Z,10.68
2023-04-01T05:27:19.596Z,11.58
2023-04-01T05:30:21.604Z,12.86
2023-04-01T05:33:23.468Z,13.23
2023-04-01T05:36:25.466Z,12.57
2023-04-01T05:39:27.431Z,12.33
2023-04-01T05:42:29.423Z,12.00
2023-04-01T05:45:31.600Z,11.65
2023-04-01T05:48:35.823Z,11.56
2023-04-01T05:51:38.434Z,11.60
2023-04-01T05:54:40.273Z,11.69
2023-04-01T05:57:42.104Z,11.77
2023-04-01T06:00:44.468Z,11.95
2023-04-01T06:03:47.313Z,12.12
2023-04-01T06:06:49.312Z,12.21
2023-04-01T06:09:51.036Z,12.51
2023-04-01T06:13:13.775Z,12.58
2023-04-01T06:16:21.358Z,12.66
2023-04-01T06:19:41.134Z,12.74
2023-04-01T06:22:45.989Z,12.83
2023-04-01T06:25:59.931Z,12.73
2023-04-01T06:29:04.715Z,12.62
2023-04-01T06:32:23.023Z,12.73
2023-04-01T06:35:43.584Z,12.77
2023-04-01T06:38:48.527Z,12.86
2023-04-01T06:42:08.755Z,12.82
2023-04-01T06:45:27.563Z,12.88
2023-04-01T06:48:35.524Z,12.90
2023-04-01T06:51:53.860Z,13.04
2023-04-01T06:55:34.401Z,13.19
2023-04-01T06:58:47.444Z,13.16
2023-04-01T07:01:52.939Z,13.13
2023-04-01T07:04:56.844Z,13.37
2023-04-01T07:08:01.140Z,13.35
2023-04-01T07:11:05.743Z,13.53
2023-04-01T07:14:18.623Z,13.68
2023-04-01T07:17:29.869Z,13.78
2023-04-01T07:20:36.668Z,13.84
2023-04-01T07:23:41.342Z,14.04
2023-04-01T07:26:44.230Z,14.00
2023-04-01T07:29:46.579Z,13.95
2023-04-01T07:32:53.054Z,14.26
2023-04-01T07:36:36.351Z,14.14
2023-04-01T07:40:02.023Z,14.32
2023-04-01T07:43:10.798Z,14.34
2023-04-01T07:46:31.730Z,14.48
2023-04-01T07:50:07.319Z,14.52
2023-04-01T07:53:14.902Z,14.41
2023-04-01T07:56:38.836Z,14.48
2023-04-01T07:59:43.466Z,14.58
2023-04-01T08:03:07.558Z,14.78
2023-04-01T08:06:12.777Z,14.88
2023-04-01T08:09:31.717Z,14.84
2023-04-01T08:13:02.691Z,14.84
2023-04-01T08:16:17.196Z,15.21
2023-04-01T08:19:22.128Z,15.27
2023-04-01T08:22:51.868Z,14.92
2023-04-01T08:26:16.678Z,14.37
2023-04-01T08:30:10.075Z,14.66
2023-04-01T08:33:18.577Z,14.39
2023-04-01T08:36:24.976Z,14.16
2023-04-01T08:39:37.544Z,14.24
2023-04-01T08:42:51.250Z,14.21
2023-04-01T08:46:02.556Z,14.00
2023-04-01T08:49:07.224Z,14.12
2023-04-01T08:52:27.540Z,14.25
2023-04-01T08:55:38.985Z,14.38
2023-04-01T08:59:15.566Z,14.51
2023-04-01T09:02:55.025Z,14.50
2023-04-01T09:06:30.024Z,14.66
2023-04-01T09:10:11.306Z,14.51
2023-04-01T09:13:31.269Z,14.59
2023-04-01T09:16:39.044Z,14.83
2023-04-01T09:20:07.860Z,15.00
2023-04-01T09:23:41.138Z,14.73
2023-04-01T09:26:57.287Z,15.30
2023-04-01T09:30:03.360Z,15.26
2023-04-01T09:33:23.441Z,15.05
2023-04-01T09:36:46.908Z,15.18
2023-04-01T09:40:09.873Z,15.17
2023-04-01T09:43:26.061Z,14.94
2023-04-01T09:46:46.633Z,15.08
2023-04-01T09:50:02.008Z,14.99
2023-04-01T09:53:19.142Z,15.45
2023-04-01T09:56:42.808Z,15.41
2023-04-01T10:00:07.408Z,15.36
2023-04-01T10:03:29.675Z,15.49
2023-04-01T10:07:09.034Z,15.18
2023-04-01T10:10:47.532Z,14.84
2023-04-01T10:14:17.343Z,14.77
2023-04-01T10:17:40.605Z,14.77
2023-04-01T10:21:27.626Z,14.84
2023-04-01T10:24:52.351Z,14.67
2023-04-01T10:28:36.655Z,14.51
2023-04-01T10:32:12.574Z,14.40
2023-04-01T10:35:51.814Z,14.49
2023-04-01T10:39:26.267Z,14.81
2023-04-01T10:42:37.140Z,14.82
2023-04-01T10:45:55.832Z,14.82
2023-04-01T10:49:16.097Z,14.75
2023-04-01T10:52:26.890Z,14.84
2023-04-01T10:55:37.837Z,15.03
2023-04-01T10:59:16.891Z,15.38
2023-04-01T11:02:37.079Z,15.65
2023-04-01T11:05:47.758Z,15.78
2023-04-01T11:09:08.267Z,15.94
2023-04-01T11:12:35.081Z,15.80
2023-04-01T11:15:55.657Z,16.05
2023-04-01T11:19:38.136Z,16.36
2023-04-01T11:22:43.009Z,16.02
2023-04-01T11:25:57.234Z,15.84
2023-04-01T11:29:14.100Z,16.06
2023-04-01T11:32:48.905Z,15.88
2023-04-01T11:35:58.440Z,15.86
2023-04-01T11:39:30.077Z,16.07
2023-04-01T11:42:37.969Z,15.92
2023-04-01T11:45:39.874Z,15.92
2023-04-01T11:49:03.476Z,15.77
2023-04-01T11:52:17.462Z,15.42
2023-04-01T11:55:33.211Z,15.39
2023-04-01T11:58:38.228Z,15.50
2023-04-01T12:02:27.842Z,15.80
2023-04-01T12:06:00.460Z,15.93
2023-04-01T12:09:17.269Z,15.89
2023-04-01T12:12:31.162Z,15.93
2023-04-01T12:15:54.555Z,15.88
2023-04-01T12:19:18.528Z,15.77
2023-04-01T12:22:41.803Z,16.05
2023-04-01T12:26:28.862Z,16.02
2023-04-01T12:29:51.507Z,16.30
2023-04-01T12:33:05.620Z,16.14
2023-04-01T12:36:32.487Z,16.07
2023-04-01T12:39:50.733Z,16.15
2023-04-01T12:43:11.821Z,16.28
2023-04-01T12:46:33.515Z,16.17
2023-04-01T12:49:48.775Z,16.20
2023-04-01T12:53:16.594Z,15.83
2023-04-01T12:57:00.445Z,15.51
2023-04-01T13:00:39.212Z,15.63
2023-04-01T13:03:50.455Z,16.02
2023-04-01T13:06:58.686Z,16.26
2023-04-01T13:10:28.567Z,16.24
2023-04-01T13:13:42.706Z,16.46
2023-04-01T13:17:23.146Z,16.48
2023-04-01T13:20:29.037Z,16.53
2023-04-01T13:23:44.286Z,16.64
2023-04-01T13:27:07.163Z,16.68
2023-04-01T13:30:26.863Z,16.91
2023-04-01T13:33:55.027Z,16.68
2023-04-01T13:37:12.733Z,16.86
2023-04-01T13:40:18.130Z,16.76
2023-04-01T13:43:24.409Z,16.80
2023-04-01T13:46:58.458Z,16.70
2023-04-01T13:50:16.525Z,16.78
2023-04-01T13:53:40.447Z,16.71
2023-04-01T13:56:45.445Z,16.71
2023-04-01T14:00:00.760Z,16.93
2023-04-01T14:03:20.604Z,17.22
2023-04-01T14:06:41.255Z,17.16
2023-04-01T14:09:55.764Z,16.98
2023-04-01T14:13:36.597Z,16.87
2023-04-01T14:16:41.424Z,16.94
2023-04-01T14:20:01.383Z,17.18
2023-04-01T14:23:43.471Z,16.94
2023-04-01T14:26:54.158Z,16.62
2023-04-01T14:30:23.776Z,16.73
2023-04-01T14:33:28.465Z,16.73
2023-04-01T14:36:43.161Z,16.85
2023-04-01T14:39:56.076Z,16.62
2023-04-01T14:43:07.328Z,16.27
2023-04-01T14:46:33.556Z,15.90
2023-04-01T14:49:37.647Z,15.45
2023-04-01T14:52:42.873Z,15.21
2023-04-01T14:55:44.562Z,15.16
2023-04-01T14:58:48.491Z,14.71
2023-04-01T15:01:59.535Z,14.74
2023-04-01T15:05:43.133Z,14.84
2023-04-01T15:08:54.353Z,14.66
2023-04-01T15:12:08.201Z,14.70
2023-04-01T15:15:48.179Z,14.78
2023-04-01T15:19:13.305Z,14.76
2023-04-01T15:23:08.222Z,14.69
2023-04-01T15:26:41.224Z,14.60
2023-04-01T15:29:49.293Z,14.61
2023-04-01T15:32:57.341Z,14.51
2023-04-01T15:36:21.353Z,14.51
2023-04-01T15:39:51.442Z,14.46
2023-04-01T15:43:31.717Z,14.46
2023-04-01T15:46:49.097Z,14.31
2023-04-01T15:50:09.069Z,14.34
2023-04-01T15:53:45.646Z,14.42
2023-04-01T15:56:50.081Z,14.34
2023-04-01T15:59:54.966Z,14.35
2023-04-01T16:03:15.946Z,14.30
2023-04-01T16:06:49.952Z,14.25
2023-04-01T16:10:17.900Z,14.27
2023-04-01T16:13:30.480Z,14.19
2023-04-01T16:16:53.628Z,14.18
2023-04-01T16:20:10.649Z,14.13
2023-04-01T16:23:28.561Z,14.16
2023-04-01T16:26:56.484Z,14.11
2023-04-01T16:30:22.857Z,14.12
2023-04-01T16:33:53.410Z,14.13
2023-04-01T16:37:14.204Z,14.09
2023-04-01T16:40:21.994Z,14.00
2023-04-01T16:43:30.376Z,14.02
2023-04-01T16:46:33.649Z,14.05
2023-04-01T16:49:53.323Z,13.93
2023-04-01T16:53:03.356Z,13.94
2023-04-01T16:56:13.136Z,13.79
2023-04-01T16:59:21.273Z,13.83
2023-04-01T17:02:39.601Z,13.78
2023-04-01T17:06:16.852Z,13.70
2023-04-01T17:09:41.471Z,13.68
2023-04-01T17:13:10.029Z,13.60
2023-04-01T17:16:37.277Z,13.48
2023-04-01T17:19:50.850Z,13.39
2023-04-01T17:23:05.449Z,13.31
2023-04-01T17:26:28.702Z,13.26
2023-04-01T17:29:59.989Z,13.16
2023-04-01T17:33:23.846Z,13.05
2023-04-01T17:36:44.249Z,12.95
2023-04-01T17:39:57.578Z,12.82
2023-04-01T17:43:31.131Z,12.84
2023-04-01T17:46:42.184Z,12.76
2023-04-01T17:50:00.884Z,12.68
2023-04-01T17:53:29.696Z,12.64
2023-04-01T17:57:05.890Z,12.62
2023-04-01T18:00:14.163Z,12.56
2023-04-01T18:03:31.194Z,12.53
2023-04-01T18:07:25.761Z,12.47
2023-04-01T18:10:37.331Z,12.44
2023-04-01T18:13:48.204Z,12.41
2023-04-01T18:17:14.851Z,12.38
2023-04-01T18:20:32.659Z,12.38
2023-04-01T18:23:44.584Z,12.33
2023-04-01T18:27:06.279Z,12.30
2023-04-01T18:30:09.579Z,12.25
2023-04-01T18:33:24.037Z,12.23
2023-04-01T18:36:51.202Z,12.15
2023-04-01T18:39:58.956Z,12.02
2023-04-01T18:43:13.207Z,12.05
2023-04-01T18:46:25.484Z,12.03
2023-04-01T18:49:43.137Z,11.95
2023-04-01T18:52:45.755Z,11.97
2023-04-01T18:55:54.439Z,11.95
2023-04-01T18:59:06.477Z,11.93
2023-04-01T19:02:33.123Z,11.89
2023-04-01T19:05:39.447Z,11.88
2023-04-01T19:08:42.164Z,11.85
2023-04-01T19:12:13.718Z,11.83
2023-04-01T19:15:28.105Z,11.80
2023-04-01T19:18:32.801Z,11.78
2023-04-01T19:21:38.909Z,11.77
2023-04-01T19:24:44.032Z,11.76
2023-04-01T19:28:02.121Z,11.75
2023-04-01T19:31:25.235Z,11.74
2023-04-01T19:34:51.009Z,11.72
2023-04-01T19:38:19.230Z,11.69
2023-04-01T19:41:32.534Z,11.66
2023-04-01T19:44:43.031Z,11.59
2023-04-01T19:48:18.635Z,11.58
2023-04-01T19:51:43.962Z,11.56
2023-04-01T19:54:52.115Z,11.63
2023-04-01T19:57:58.195Z,11.62
2023-04-01T20:01:01.311Z,11.62
2023-04-01T20:04:13.604Z,11.59
2023-04-01T20:07:32.898Z,11.55
2023-04-01T20:10:50.185Z,11.54
2023-04-01T20:14:02.291Z,11.52
2023-04-01T20:17:07.478Z,11.44
2023-04-01T20:20:09.568Z,11.39
2023-04-01T20:23:11.827Z,11.28
2023-04-01T20:26:14.385Z,11.26
2023-04-01T20:29:35.823Z,11.24
2023-04-01T20:32:50.111Z,11.16
2023-04-01T20:36:13.067Z,10.91
2023-04-01T20:39:31.779Z,10.83
2023-04-01T20:43:09.693Z,10.37
2023-04-01T20:46:24.209Z,10.33
2023-04-01T20:50:03.711Z,10.31
2023-04-01T20:53:13.964Z,9.82
2023-04-01T20:56:15.881Z,9.72
2023-04-01T20:59:44.135Z,9.46
2023-04-01T21:03:13.550Z,9.47
2023-04-01T21:06:37.073Z,9.48
2023-04-01T21:09:50.164Z,9.59
2023-04-01T21:13:27.664Z,9.64
2023-04-01T21:16:53.908Z,9.55
2023-04-01T21:20:17.498Z,9.58
2023-04-01T21:23:31.087Z,9.54
2023-04-01T21:26:51.566Z,9.53
2023-04-01T21:30:16.596Z,9.50
2023-04-01T21:33:21.476Z,9.37
2023-04-01T21:36:52.179Z,9.33
2023-04-01T21:40:04.613Z,9.10
2023-04-01T21:43:21.807Z,9.16
2023-04-01T21:46:42.428Z,9.13
2023-04-01T21:50:05.478Z,9.01
2023-04-01T21:53:35.371Z,8.95
2023-04-01T21:56:46.368Z,8.89
2023-04-01T22:00:17.898Z,8.84
2023-04-01T22:03:53.797Z,8.85
2023-04-01T22:07:13.863Z,8.79
2023-04-01T22:10:24.020Z,8.81
2023-04-01T22:13:44.290Z,8.75
2023-04-01T22:16:58.708Z,8.76
2023-04-01T22:20:12.773Z,8.73
2023-04-01T22:23:52.189Z,8.62
2023-04-01T22:27:18.575Z,8.51
2023-04-01T22:30:31.382Z,8.33
2023-04-01T22:33:48.867Z,8.38
2023-04-01T22:37:02.575Z,7.99
2023-04-01T22:40:22.637Z,8.03
2023-04-01T22:43:39.377Z,8.11
2023-04-01T22:47:03.027Z,8.19
2023-04-01T22:50:17.454Z,8.26
2023-04-01T22:53:38.094Z,8.34
2023-04-01T22:56:44.890Z,8.45
2023-04-01T22:59:55.829Z,8.30
2023-04-01T23:03:17.689Z,8.03
2023-04-01T23:06:34.522Z,7.92
2023-04-01T23:09:38.348Z,7.80
2023-04-01T23:12:41.276Z,7.90
2023-04-01T23:15:43.445Z,8.05
2023-04-01T23:19:14.879Z,8.36
2023-04-01T23:22:24.755Z,8.54
2023-04-01T23:25:41.340Z,8.59
2023-04-01T23:28:55.624Z,8.54
2023-04-01T23:31:59.525Z,8.63
2023-04-01T23:35:01.550Z,8.58
2023-04-01T23:38:03.487Z,8.55
2023-04-01T23:41:07.088Z,8.61
2023-04-01T23:44:14.148Z,8.60
2023-04-01T23:47:22.721Z,8.61
2023-04-01T23:50:25.471Z,8.62
2023-04-01T23:53:31.510Z,8.58
2023-04-01T23:56:36.663Z,8.73
2023-04-01T23:59:38.722Z,8.81
